Langley, WA

7:52 PM PDT on September 02, 2014 (GMT -0700)
Dusty Ln | Change Station
CLOSE
Current Station
Personal Weather Station
Location: Freeland, WA
Elevation: 217 ft
Nearby Weather Stations

Elev 217 ft 48.01 °N, 122.51 °W | Updated 5 minutes ago

Overcast
Overcast
55.8 °F
Feels Like 55.8 °F
N
7.0
Wind Variable Wind from WNW
Gusts 12.0 mph

Today
High -- | Low -- °F
--% Chance of Precip.
Yesterday
High -- | Low -- °F
Precip. -- in
6:29 AM 7:48 PM
First Quarter, 57% visible
Pressure 29.83 in
Visibility 10.0 miles
Clouds Mostly Cloudy 1500 ft
Mostly Cloudy 2000 ft
Overcast 6000 ft
Dew Point 53 °F
Humidity 91%
Rainfall 0.10 in
Snow Depth Not available.
UV 0 out of 12
Pollen .80 out of 12
PM2.5 Good
Flu Activity Not available.
SPECI KPAE 030203Z 34007KT 10SM BKN015 BKN020 OVC060 13/12 A2983 RMK AO2 LTG DSNT E-S T01330117

More Conditions Fewer Conditions

Pressure 29.83 in
Visibility 10.0 miles
Clouds Mostly Cloudy 1500 ft
Mostly Cloudy 2000 ft
Overcast 6000 ft
Dew Point 53 °F
Humidity 91%
Rainfall 0.10 in
Snow Depth Not available.
UV 0 out of 12
Pollen .80 out of 12
PM2.5 Good
Flu Activity Not available.
SPECI KPAE 030203Z 34007KT 10SM BKN015 BKN020 OVC060 13/12 A2983 RMK AO2 LTG DSNT E-S T01330117

More Conditions Fewer Conditions

Nowcast | as of 7:17 PM PDT on September 2, 2014

At 710 PM an area of moderate showers was over the eastern Strait of Juan de Fuca and north Whidbey Island. These showers will move southeast over the Sequim area by 730 PM...extending east across Port Townsend and across the central part of Whidbey Island and Camano Island. By 8 PM the showers should reach northwest Snohomish County around Arlington and Marysville.

×

10-Day Weather Forecast

Almanac

Astronomy

Sep. 02, 2014 Rise Set
Actual Time 6:29 AM PDT 7:48 PM PDT
Civil Twilight 5:57 AM PDT 8:20 PM PDT
Nautical Twilight 5:18 AM PDT 8:59 PM PDT
Astronomical Twilight 4:36 AM PDT 9:40 PM PDT
Moon 2:51 PM PDT (9/2) No Moon Set
Length of Visible Light 14h 23m
Length of Day
13h 19m
Tomorrow will be 3m 22s shorter.
First Quarter, 57% of the Moon is Illuminated
Today
First Quarter
Sep 8
Full
Sep 15
Last Quarter
Sep 24
New
Oct 1
First Quarter

Today's Extremes

State Highs State Lows

Community

WunderPhotos

Upload Photos

1,749,845 photos uploaded!

Nearby

Air Quality

  Air Quality AQ Index Pollutant
Yesterday Good
PM2.5
Current Good
PM2.5

Snow Depth

Station Depth Elevation
Dungeness 0 in 4100 ft
Mount Crag 0 in 4050 ft
Alpine Meadows 0 in 3500 ft
Skookum Creek 0 in 3920 ft
Elbow Lake 0 in 3200 ft

Earthquake Activity

City Distance Mag. Time & Date
No recent earthquake activity has been reported nearby.
Minimum magnitude displayed is 2.5.

Coastal Water Temperatures

Place Temperature
Port Townsend, WA 54.0 °F
Friday Harbor, WA 53.1 °F
Port Angeles, WA 52.0 °F

Nearby Weather Stations